Airfield :
LOGIN :

Register | Disclaimer

   EN    FR    IT 

 










Legend :    VFR   Marginal VFR   IFR   Intensive IFR   Very Intensive IFR
Visi :
Ceiling :
>= 8 km
>= 3000ft
5 to 8 km
1000 to 3000 ft
1500m to 5 km
500 to 1000 ft
800 to 1500m
200 to 500 ft
< 800m
< 200 ft
Symbols :   Thunderstorms  Fog  Heavy snow  Heavy precipitations  Wind > 20 kt
SIGMETs :     Misc.  Thunderstorms  Icing  Turbulence  Mountain Waves  Volcanic Ashes







- Airport Elevation : 273 ft


EGXT - RAF Wittering Stamford

CURRENT METAR :
  • 150950Z 33017KT 9999 FEW025 03/01 Q0996 BLACKBLU

EXPIRED METARs :
  • 150850Z 32014KT 9999 FEW012 SCT190 02/01 Q0994 BLACKBLU
  • 150805Z 32016KT CAVOK 02/00 Q0993 BLACKBLU
  • 150750Z 32016KT CAVOK 02/01 Q0993 BLU
  • 150650Z AUTO 32011KT 9999 BKN210/// 02/00 Q0991

TAF TAF EGXT
Valid from the 15 at 09:00 until the 15 at 18:00 UTC


150727Z 1509/1518 33015KT 9999 FEW025
PROB30
TEMPO 1509/1510 SCT024
TEMPO 1510/1515 34016G26KT -SHRA SCT018
PROB30
TEMPO 1510/1515 7000 SHRA SCT014
No reported NOTAMs for that airfield.



MET'MAP, your aeronautical weather chart ! - Copyright ORBIFLY December 2007 - Disclaimer

ORBIFLY MET'MAP TEAM :

Programming & Development : Alexandra Zaïnal
Concept & Development : Baudouin d'Aumeries
Co-Development & Prog : Marc-Olivier Méhu
Technical & hardware support : Manuel Goepfert

Contact : metmap@orbifly.com




SOURCES & CREDITS :

   NOAA